Time;durP1;ratioP1;P1;durP2;ratioP2;P2;SDS_P1;SDS_P2;PMS_P1;PMS_P2;Temp;Humidity;BMP_temperature;BMP_pressure;BME280_temperature;BME280_humidity;BME280_pressure;Samples;Min_cycle;Max_cycle;Signal;HPM_P1;HPM_P2
2022/10/24 00:02:03;;;;;;;5.25;2.08;;;15.40;99.90;;;;;;5036886;28;20196;-88
2022/10/24 00:04:28;;;;;;;6.40;2.33;;;15.50;99.90;;;;;;5033239;28;20104;-89
2022/10/24 00:06:54;;;;;;;5.35;1.90;;;15.40;99.90;;;;;;5022450;28;20119;-88
2022/10/24 00:09:20;;;;;;;3.83;1.85;;;15.30;99.90;;;;;;5036443;28;20171;-89
2022/10/24 00:11:45;;;;;;;3.55;2.05;;;15.30;99.90;;;;;;5036713;28;20072;-88
2022/10/24 00:14:11;;;;;;;3.13;1.80;;;15.20;99.90;;;;;;5019842;28;20098;-88
2022/10/24 00:16:36;;;;;;;5.85;1.90;;;15.20;99.90;;;;;;5036637;28;20048;-89
2022/10/24 00:19:02;;;;;;;2.85;1.63;;;15.10;99.90;;;;;;5019542;28;20045;-87
2022/10/24 00:21:28;;;;;;;3.67;1.60;;;15.00;99.90;;;;;;5019993;28;20052;-88
2022/10/24 00:23:53;;;;;;;2.45;1.77;;;15.00;99.90;;;;;;5035589;28;20106;-87
2022/10/24 00:26:19;;;;;;;8.27;3.08;;;15.00;99.90;;;;;;5019467;28;20106;-87
2022/10/24 00:28:45;;;;;;;8.50;2.15;;;15.00;99.90;;;;;;5036223;28;20063;-87
2022/10/24 00:31:15;;;;;;;7.20;2.30;;;14.90;99.90;;;;;;5002919;28;20140;-88
2022/10/24 00:33:41;;;;;;;5.38;1.92;;;14.90;99.90;;;;;;5019267;28;20053;-87
2022/10/24 00:36:14;;;;;;;2.42;1.90;;;14.90;99.90;;;;;;5018150;28;20063;-87
2022/10/24 00:38:40;;;;;;;2.88;2.00;;;14.80;99.90;;;;;;5022631;28;20044;-88
2022/10/24 00:41:05;;;;;;;4.85;1.83;;;14.90;99.90;;;;;;5046186;28;20032;-87
2022/10/24 00:43:31;;;;;;;3.30;1.60;;;14.90;99.90;;;;;;5041758;28;20041;-88
2022/10/24 00:45:58;;;;;;;4.80;2.20;;;15.00;99.90;;;;;;5045602;28;20102;-89
2022/10/24 00:48:27;;;;;;;3.40;1.77;;;15.00;99.90;;;;;;5018803;28;20055;-88
2022/10/24 00:50:56;;;;;;;5.95;2.13;;;15.00;99.90;;;;;;5019438;28;20134;-88
2022/10/24 00:53:21;;;;;;;6.18;2.05;;;15.00;99.90;;;;;;5017876;28;20497;-88
2022/10/24 00:55:49;;;;;;;3.25;1.73;;;15.00;99.90;;;;;;5021406;28;20118;-87
2022/10/24 00:58:15;;;;;;;4.75;1.83;;;15.00;99.90;;;;;;5036773;28;20060;-88
2022/10/24 01:00:41;;;;;;;5.63;1.98;;;15.00;99.90;;;;;;5038812;28;20091;-88
2022/10/24 01:03:07;;;;;;;3.78;1.50;;;15.00;99.90;;;;;;5038870;28;20452;-87
2022/10/24 01:05:39;;;;;;;4.90;2.00;;;15.10;99.90;;;;;;5021923;28;20049;-89
2022/10/24 01:08:18;;;;;;;9.00;2.40;;;15.00;99.90;;;;;;5038699;28;20125;-88
2022/10/24 01:10:46;;;;;;;4.72;1.80;;;15.00;99.90;;;;;;5055504;28;20102;-89
2022/10/24 01:13:36;;;;;;;4.93;2.00;;;15.10;99.90;;;;;;5055013;28;20060;-88
2022/10/24 01:16:31;;;;;;;3.05;2.00;;;15.10;99.90;;;;;;5038785;28;20135;-89
2022/10/24 01:19:07;;;;;;;;;;;15.10;99.90;;;;;;5055718;28;20166;-88
2022/10/24 01:21:36;;;;;;;3.78;1.70;;;15.10;99.90;;;;;;5038335;28;20014;-87
2022/10/24 01:24:11;;;;;;;8.10;2.75;;;15.20;99.90;;;;;;5037443;28;20059;-88
2022/10/24 01:26:59;;;;;;;4.07;1.70;;;15.30;99.90;;;;;;5055110;28;20127;-88
2022/10/24 01:29:40;;;;;;;5.03;1.85;;;15.20;99.90;;;;;;5054695;28;20127;-89
2022/10/24 01:32:40;;;;;;;4.93;2.08;;;15.20;99.90;;;;;;5054753;28;20550;-87
2022/10/24 01:35:35;;;;;;;5.15;1.77;;;15.30;99.90;;;;;;5011130;28;20053;-88
2022/10/24 01:38:06;;;;;;;2.08;1.58;;;15.30;99.90;;;;;;5038243;28;20052;-88
2022/10/24 01:40:54;;;;;;;2.83;1.85;;;15.20;99.90;;;;;;5038058;28;20052;-87
2022/10/24 01:43:32;;;;;;;5.40;2.42;;;15.30;99.90;;;;;;5025818;28;20114;-88
2022/10/24 01:46:01;;;;;;;4.38;2.33;;;15.30;99.90;;;;;;5021406;28;20070;-88
2022/10/24 01:48:27;;;;;;;4.50;2.10;;;15.30;99.90;;;;;;5021209;28;20048;-88
2022/10/24 01:50:57;;;;;;;5.45;2.20;;;15.40;99.90;;;;;;5021227;28;20113;-87
2022/10/24 01:53:23;;;;;;;3.53;2.22;;;15.30;99.90;;;;;;5036690;28;20064;-86
2022/10/24 01:55:48;;;;;;;5.70;2.10;;;15.40;99.90;;;;;;5036554;28;20041;-89
2022/10/24 01:58:14;;;;;;;4.60;2.03;;;15.40;99.90;;;;;;5041049;28;20542;-88
2022/10/24 02:00:40;;;;;;;2.80;2.10;;;15.30;99.90;;;;;;5046907;28;20083;-88
2022/10/24 02:03:21;;;;;;;3.17;1.83;;;15.30;99.90;;;;;;5062060;28;20025;-87
2022/10/24 02:05:59;;;;;;;4.85;2.20;;;15.30;99.90;;;;;;5069376;28;20055;-87
2022/10/24 02:08:28;;;;;;;7.30;1.98;;;15.20;99.90;;;;;;5036669;28;20143;-89
2022/10/24 02:11:17;;;;;;;3.70;2.30;;;15.20;99.90;;;;;;5038190;28;20048;-88
2022/10/24 02:14:13;;;;;;;7.32;2.40;;;15.10;99.90;;;;;;5037638;28;20143;-89
2022/10/24 02:16:39;;;;;;;5.60;2.22;;;15.10;99.90;;;;;;5037515;28;20550;-87
2022/10/24 02:19:05;;;;;;;5.55;2.63;;;15.00;99.90;;;;;;5038066;28;20385;-88
2022/10/24 02:22:01;;;;;;;5.07;2.42;;;15.10;99.90;;;;;;5037233;28;20051;-89
2022/10/24 02:24:28;;;;;;;6.55;2.28;;;15.20;99.90;;;;;;5054159;28;20131;-88
2022/10/24 02:27:13;;;;;;;7.28;2.08;;;15.20;99.90;;;;;;5054677;28;20044;-88
2022/10/24 02:29:40;;;;;;;5.15;2.10;;;15.20;99.90;;;;;;5021374;28;20052;-88
2022/10/24 02:32:08;;;;;;;6.90;2.53;;;15.20;99.90;;;;;;5038069;28;20056;-87
2022/10/24 02:34:34;;;;;;;5.28;2.85;;;15.40;99.90;;;;;;5054352;28;20505;-89
2022/10/24 02:36:59;;;;;;;5.95;2.35;;;15.40;99.90;;;;;;5038394;28;20056;-87
2022/10/24 02:39:25;;;;;;;7.30;2.20;;;15.40;99.90;;;;;;5025115;28;20044;-89
2022/10/24 02:41:51;;;;;;;5.28;1.85;;;15.40;99.90;;;;;;5039404;28;20059;-89
2022/10/24 02:44:16;;;;;;;5.88;2.50;;;15.40;99.90;;;;;;5038220;28;20052;-87
2022/10/24 02:46:42;;;;;;;6.68;2.45;;;15.30;99.90;;;;;;5021050;28;20052;-87
2022/10/24 02:49:08;;;;;;;6.55;2.00;;;15.30;99.90;;;;;;5054363;28;20041;-87
2022/10/24 02:51:35;;;;;;;6.88;2.65;;;15.30;99.90;;;;;;5025886;28;20553;-88
2022/10/24 02:54:01;;;;;;;5.18;2.30;;;15.30;99.90;;;;;;5017792;28;20053;-88
2022/10/24 02:56:27;;;;;;;7.65;2.15;;;15.20;99.90;;;;;;5018034;28;20045;-89
2022/10/24 02:58:53;;;;;;;4.15;2.08;;;15.30;99.90;;;;;;5022803;28;20060;-87
2022/10/24 03:01:18;;;;;;;5.40;2.17;;;15.30;99.90;;;;;;5048091;28;20045;-88
2022/10/24 03:03:45;;;;;;;9.70;2.08;;;15.30;99.90;;;;;;5003005;28;20051;-89
2022/10/24 03:06:10;;;;;;;4.70;2.10;;;15.40;99.90;;;;;;5022310;28;20072;-88
2022/10/24 03:08:36;;;;;;;4.78;2.22;;;15.40;99.90;;;;;;5016723;28;20103;-88
2022/10/24 03:11:02;;;;;;;8.23;2.42;;;15.50;99.90;;;;;;5006180;28;20482;-87
2022/10/24 03:13:27;;;;;;;9.18;2.40;;;15.40;99.90;;;;;;5021788;28;20045;-88
2022/10/24 03:15:53;;;;;;;4.55;2.15;;;15.40;99.90;;;;;;5021596;28;20485;-88
2022/10/24 03:18:19;;;;;;;8.02;2.20;;;15.40;99.90;;;;;;5042357;28;20037;-88
2022/10/24 03:20:45;;;;;;;11.45;3.13;;;15.40;99.90;;;;;;5032030;28;20033;-87
2022/10/24 03:23:11;;;;;;;5.30;2.45;;;15.30;99.90;;;;;;5045327;28;20083;-87
2022/10/24 03:25:37;;;;;;;6.75;2.00;;;15.30;99.90;;;;;;5030309;28;20485;-88
2022/10/24 03:28:03;;;;;;;3.45;2.17;;;15.30;99.90;;;;;;5021055;28;20163;-87
2022/10/24 03:30:29;;;;;;;8.00;2.40;;;15.30;99.90;;;;;;5021134;28;20128;-88
2022/10/24 03:32:55;;;;;;;4.85;2.50;;;15.40;99.90;;;;;;5004662;28;20053;-88
2022/10/24 03:35:20;;;;;;;6.32;2.30;;;15.30;99.90;;;;;;5037089;28;20049;-88
2022/10/24 03:37:46;;;;;;;7.47;2.67;;;15.30;99.90;;;;;;5020707;28;20141;-88
2022/10/24 03:40:12;;;;;;;6.95;3.00;;;15.30;99.90;;;;;;5037384;28;20439;-88
2022/10/24 03:42:37;;;;;;;7.45;2.60;;;15.40;99.90;;;;;;5020130;28;20440;-88
2022/10/24 03:45:04;;;;;;;10.88;2.47;;;15.30;99.90;;;;;;5020143;28;20087;-89
2022/10/24 03:47:29;;;;;;;5.00;2.75;;;15.40;99.90;;;;;;5020362;28;20152;-88
2022/10/24 03:49:55;;;;;;;6.25;2.53;;;15.40;99.90;;;;;;5020535;28;20135;-89
2022/10/24 03:52:21;;;;;;;4.60;2.67;;;15.30;99.90;;;;;;5004590;28;20053;-89
2022/10/24 03:54:46;;;;;;;3.75;2.40;;;15.40;99.90;;;;;;5020190;28;20201;-89
2022/10/24 03:57:14;;;;;;;8.40;2.55;;;15.40;99.90;;;;;;5020553;28;20051;-88
2022/10/24 03:59:40;;;;;;;4.18;2.38;;;15.40;99.90;;;;;;5020685;28;20469;-89
2022/10/24 04:02:06;;;;;;;5.50;2.30;;;15.50;99.90;;;;;;5022930;28;20041;-89
2022/10/24 04:04:32;;;;;;;6.20;2.45;;;15.50;99.90;;;;;;5005937;28;20105;-87
2022/10/24 04:06:59;;;;;;;6.50;2.58;;;15.50;99.90;;;;;;5020156;28;20199;-89
2022/10/24 04:09:25;;;;;;;3.53;2.13;;;15.50;99.90;;;;;;5036489;28;20455;-89
2022/10/24 04:11:52;;;;;;;4.65;2.33;;;15.50;99.90;;;;;;5019601;28;20044;-88
2022/10/24 04:14:18;;;;;;;4.95;2.47;;;15.50;99.90;;;;;;5003643;28;20049;-87
2022/10/24 04:16:44;;;;;;;6.80;2.53;;;15.50;99.90;;;;;;5003609;28;20060;-87
2022/10/24 04:19:10;;;;;;;4.28;2.30;;;15.40;99.90;;;;;;5019166;28;20048;-88
2022/10/24 04:21:36;;;;;;;4.57;2.53;;;15.40;99.90;;;;;;5036038;28;20370;-88
2022/10/24 04:24:01;;;;;;;7.82;2.40;;;15.40;99.90;;;;;;5019658;28;20097;-87
2022/10/24 04:26:27;;;;;;;5.10;2.10;;;15.40;99.90;;;;;;5019842;28;20057;-88
2022/10/24 04:28:55;;;;;;;5.72;2.33;;;15.40;99.90;;;;;;5018911;28;20518;-87
2022/10/24 04:31:21;;;;;;;5.88;2.25;;;15.30;99.90;;;;;;5020099;28;20048;-88
2022/10/24 04:33:47;;;;;;;5.60;2.15;;;15.40;99.90;;;;;;5019054;28;20074;-88
2022/10/24 04:36:12;;;;;;;4.60;1.98;;;15.30;99.90;;;;;;5018503;28;20041;-88
2022/10/24 04:38:38;;;;;;;4.55;1.80;;;15.20;99.90;;;;;;5041213;28;20123;-88
2022/10/24 04:41:04;;;;;;;4.55;2.20;;;15.20;99.90;;;;;;5046310;28;20059;-87
2022/10/24 04:43:29;;;;;;;5.45;2.08;;;15.10;99.90;;;;;;5059811;28;20048;-87
2022/10/24 04:45:55;;;;;;;8.63;2.50;;;15.10;99.90;;;;;;5032975;28;20133;-88
2022/10/24 04:48:21;;;;;;;9.05;2.22;;;15.10;99.90;;;;;;5036286;28;20051;-89
2022/10/24 04:50:47;;;;;;;3.22;1.85;;;15.10;99.90;;;;;;5022545;28;20056;-89
2022/10/24 04:53:12;;;;;;;7.30;2.00;;;15.20;99.90;;;;;;5039532;28;20045;-89
2022/10/24 04:55:38;;;;;;;9.60;3.03;;;15.20;99.90;;;;;;5038870;28;20472;-88
2022/10/24 04:58:04;;;;;;;4.32;1.98;;;15.20;99.90;;;;;;5055726;28;20051;-88
2022/10/24 05:00:33;;;;;;;4.75;1.70;;;15.20;99.90;;;;;;5055785;28;20052;-88
2022/10/24 05:02:58;;;;;;;6.57;1.98;;;15.20;99.90;;;;;;5038779;28;20576;-87
2022/10/24 05:05:24;;;;;;;4.53;2.22;;;15.20;99.90;;;;;;5055505;28;20048;-88
2022/10/24 05:07:49;;;;;;;4.03;1.90;;;15.20;99.90;;;;;;5055092;28;20052;-88
2022/10/24 05:10:15;;;;;;;5.95;2.08;;;15.10;99.90;;;;;;5038887;28;20044;-89
2022/10/24 05:12:42;;;;;;;5.47;2.00;;;15.10;99.90;;;;;;5022221;28;20135;-88
2022/10/24 05:15:09;;;;;;;6.32;1.75;;;15.10;99.90;;;;;;5039302;28;20041;-87
2022/10/24 05:17:34;;;;;;;4.32;1.95;;;15.10;99.90;;;;;;5022266;28;20057;-89
2022/10/24 05:20:00;;;;;;;6.22;2.63;;;15.00;99.90;;;;;;5021657;28;20193;-88
2022/10/24 05:22:26;;;;;;;3.53;2.17;;;15.10;99.90;;;;;;5038701;28;20056;-88
2022/10/24 05:24:52;;;;;;;5.70;2.10;;;15.10;99.90;;;;;;5054615;28;20046;-88
2022/10/24 05:27:23;;;;;;;4.22;2.00;;;15.20;99.90;;;;;;5021597;28;20099;-89
2022/10/24 05:29:52;;;;;;;5.47;2.35;;;15.20;99.90;;;;;;5054463;28;20400;-89
2022/10/24 05:32:18;;;;;;;5.90;1.88;;;15.20;99.90;;;;;;5022157;28;20048;-88
2022/10/24 05:34:44;;;;;;;3.88;1.80;;;15.10;99.90;;;;;;5039117;28;20328;-89
2022/10/24 05:37:10;;;;;;;5.63;1.65;;;15.20;99.90;;;;;;5038304;28;20308;-89
2022/10/24 05:39:41;;;;;;;5.00;1.55;;;15.10;99.90;;;;;;5038947;28;20056;-88
2022/10/24 05:42:07;;;;;;;6.68;2.00;;;15.10;99.90;;;;;;5054827;28;20414;-88
2022/10/24 05:44:33;;;;;;;4.95;1.73;;;15.10;99.90;;;;;;5039521;28;20048;-89
2022/10/24 05:46:58;;;;;;;5.85;1.50;;;15.10;99.90;;;;;;5025637;28;20059;-89
2022/10/24 05:49:24;;;;;;;5.68;1.67;;;15.10;99.90;;;;;;5038217;28;20054;-89
2022/10/24 05:51:49;;;;;;;4.32;1.67;;;15.10;99.90;;;;;;5037811;28;20480;-89
2022/10/24 05:54:15;;;;;;;5.55;2.65;;;15.10;99.90;;;;;;5037994;28;20473;-88
2022/10/24 05:56:41;;;;;;;5.20;1.75;;;15.00;99.90;;;;;;5071882;28;20532;-89
2022/10/24 05:59:07;;;;;;;8.80;2.05;;;14.90;99.90;;;;;;5061666;28;20053;-88
2022/10/24 06:01:33;;;;;;;4.10;1.58;;;14.90;99.90;;;;;;5041409;28;20048;-88
2022/10/24 06:03:58;;;;;;;4.32;1.50;;;14.90;99.90;;;;;;5061160;28;20024;-88
2022/10/24 06:06:24;;;;;;;8.30;2.17;;;14.90;99.90;;;;;;5056467;28;20044;-90
2022/10/24 06:08:50;;;;;;;9.70;2.20;;;14.90;99.90;;;;;;5040945;28;20495;-88
2022/10/24 06:11:16;;;;;;;3.58;1.40;;;15.00;99.90;;;;;;5050866;28;20048;-88
2022/10/24 06:13:41;;;;;;;3.83;1.65;;;15.00;99.90;;;;;;5058540;28;20135;-88
2022/10/24 06:16:08;;;;;;;6.20;1.60;;;15.00;99.90;;;;;;5038142;28;20056;-89
2022/10/24 06:18:34;;;;;;;10.55;1.73;;;15.00;99.90;;;;;;5038419;28;20493;-89
2022/10/24 06:21:00;;;;;;;4.38;1.48;;;15.00;99.90;;;;;;5037454;28;20048;-89
2022/10/24 06:23:26;;;;;;;6.38;1.50;;;15.10;99.90;;;;;;5038112;28;20047;-88
2022/10/24 06:25:51;;;;;;;8.27;2.45;;;15.20;99.90;;;;;;5037105;28;20045;-89
2022/10/24 06:28:17;;;;;;;7.10;1.42;;;15.20;99.90;;;;;;5037856;28;20059;-89
2022/10/24 06:30:43;;;;;;;6.22;1.55;;;15.20;99.90;;;;;;5021488;28;20056;-89
2022/10/24 06:33:09;;;;;;;3.42;1.58;;;15.20;99.90;;;;;;5037516;28;20048;-89
2022/10/24 06:35:34;;;;;;;5.03;1.40;;;15.20;99.90;;;;;;5037735;28;20052;-89
2022/10/24 06:38:00;;;;;;;6.13;1.55;;;15.20;99.90;;;;;;5037109;28;20048;-88
2022/10/24 06:40:26;;;;;;;4.47;1.50;;;15.20;99.90;;;;;;5020791;28;20139;-89
2022/10/24 06:42:51;;;;;;;4.18;1.40;;;15.20;99.90;;;;;;5057674;28;20100;-89
2022/10/24 06:45:20;;;;;;;6.72;1.50;;;15.20;99.90;;;;;;5024751;28;20040;-90
2022/10/24 06:47:45;;;;;;;3.92;1.75;;;15.20;99.90;;;;;;5024976;28;20040;-89
2022/10/24 06:50:11;;;;;;;3.53;1.45;;;15.30;99.90;;;;;;5025095;28;20071;-90
2022/10/24 06:52:37;;;;;;;2.58;1.27;;;15.20;99.90;;;;;;5040687;28;20102;-89
2022/10/24 06:55:02;;;;;;;5.15;1.88;;;15.30;99.90;;;;;;5023860;28;20051;-90
2022/10/24 06:57:28;;;;;;;4.95;1.70;;;15.30;99.90;;;;;;5057487;28;20485;-89
2022/10/24 06:59:54;;;;;;;6.05;1.67;;;15.30;99.90;;;;;;5023014;28;20481;-90
2022/10/24 07:02:19;;;;;;;6.32;1.80;;;15.20;99.90;;;;;;5040667;28;20050;-89
2022/10/24 07:04:45;;;;;;;2.97;1.63;;;15.20;99.90;;;;;;5040555;28;20135;-90
2022/10/24 07:07:20;;;;;;;3.47;1.67;;;15.20;99.90;;;;;;5023662;28;20056;-89
2022/10/24 07:09:51;;;;;;;3.42;1.80;;;15.10;99.90;;;;;;5040751;28;20446;-89
2022/10/24 07:12:17;;;;;;;5.00;1.60;;;15.20;99.90;;;;;;5024302;28;20053;-89
2022/10/24 07:14:42;;;;;;;4.10;1.50;;;15.30;99.90;;;;;;5023838;28;20051;-88
2022/10/24 07:17:08;;;;;;;2.63;1.40;;;15.40;99.90;;;;;;5023447;28;20056;-89
2022/10/24 07:19:33;;;;;;;4.90;2.25;;;15.50;99.90;;;;;;5040109;28;20064;-88
2022/10/24 07:21:59;;;;;;;2.25;1.70;;;15.60;99.90;;;;;;5055283;28;20048;-88
2022/10/24 07:24:25;;;;;;;5.68;1.83;;;15.70;99.90;;;;;;5056280;28;20044;-88
2022/10/24 07:26:50;;;;;;;6.35;1.73;;;15.70;99.90;;;;;;5081035;28;20112;-87
2022/10/24 07:29:16;;;;;;;5.78;1.60;;;15.80;99.90;;;;;;5047028;28;20036;-88
2022/10/24 07:31:42;;;;;;;5.78;1.50;;;16.40;99.90;;;;;;5031701;28;20084;-91
2022/10/24 07:34:07;;;;;;;3.65;1.33;;;17.00;99.90;;;;;;5056669;28;20115;-91
2022/10/24 07:36:33;;;;;;;4.88;1.40;;;17.40;99.90;;;;;;5029539;28;20079;-90
2022/10/24 07:38:59;;;;;;;6.97;2.00;;;17.20;99.90;;;;;;5031964;28;20618;-92
2022/10/24 07:41:26;;;;;;;5.10;1.45;;;17.80;99.90;;;;;;5046810;28;20123;-89
2022/10/24 07:43:51;;;;;;;3.53;1.38;;;18.20;99.90;;;;;;5014998;28;20101;-89
2022/10/24 07:46:17;;;;;;;5.72;1.35;;;18.70;99.90;;;;;;5029072;28;20131;-91
2022/10/24 07:48:43;;;;;;;7.63;1.60;;;18.50;99.90;;;;;;5044372;28;20045;-91
2022/10/24 07:51:11;;;;;;;4.32;1.90;;;17.90;99.90;;;;;;5036438;28;20401;-89
2022/10/24 07:53:37;;;;;;;2.47;1.40;;;17.50;99.90;;;;;;5039719;28;20265;-88
2022/10/24 07:56:09;;;;;;;6.10;1.80;;;17.10;99.90;;;;;;5039729;28;20045;-89
2022/10/24 07:58:35;;;;;;;3.05;1.50;;;17.20;99.90;;;;;;5050614;28;20064;-87
2022/10/24 08:01:08;;;;;;;5.45;1.50;;;17.60;99.90;;;;;;5005522;28;20057;-90
2022/10/24 08:03:34;;;;;;;3.85;1.50;;;17.50;99.90;;;;;;5000367;28;20040;-89
2022/10/24 08:06:02;;;;;;;3.42;1.33;;;17.10;99.90;;;;;;5029910;28;20148;-91
2022/10/24 08:08:31;;;;;;;3.90;1.48;;;17.00;99.90;;;;;;5053246;28;20045;-87
2022/10/24 08:10:57;;;;;;;7.43;1.63;;;16.90;99.90;;;;;;5027412;28;20040;-89
2022/10/24 08:13:22;;;;;;;4.82;1.20;;;16.80;99.90;;;;;;5028870;28;20076;-89
2022/10/24 08:15:48;;;;;;;7.28;1.42;;;16.80;99.90;;;;;;5046958;28;20512;-89
2022/10/24 08:18:14;;;;;;;5.53;1.33;;;16.70;99.90;;;;;;5024497;28;20041;-86
2022/10/24 08:20:39;;;;;;;4.53;1.85;;;16.80;99.90;;;;;;5044565;28;20118;-87
2022/10/24 08:23:05;;;;;;;6.32;1.30;;;16.80;99.90;;;;;;5030165;28;20143;-90
2022/10/24 08:25:31;;;;;;;2.90;1.40;;;16.90;99.90;;;;;;5028036;28;20041;-89
2022/10/24 08:27:57;;;;;;;5.28;1.35;;;16.90;99.90;;;;;;5050193;28;20059;-89
2022/10/24 08:30:24;;;;;;;5.80;1.67;;;17.00;99.90;;;;;;5033858;28;20032;-91
2022/10/24 08:32:50;;;;;;;4.95;2.03;;;17.00;99.90;;;;;;5030941;28;20040;-91
2022/10/24 08:35:16;;;;;;;6.80;1.45;;;16.90;99.90;;;;;;5043562;28;20123;-91
2022/10/24 08:37:42;;;;;;;4.13;1.30;;;17.00;99.90;;;;;;5048166;28;20474;-90
2022/10/24 08:40:11;;;;;;;4.78;1.20;;;17.10;99.90;;;;;;5032894;28;20404;-90
2022/10/24 08:42:37;;;;;;;6.15;1.67;;;17.30;99.90;;;;;;5052846;28;20052;-89
2022/10/24 08:45:03;;;;;;;4.82;1.20;;;17.50;99.90;;;;;;5043721;28;20024;-86
2022/10/24 08:47:48;;;;;;;3.58;1.52;;;17.40;99.90;;;;;;5063523;28;20028;-86
2022/10/24 08:50:28;;;;;;;1.92;1.10;;;17.30;99.90;;;;;;5023965;28;20079;-90
2022/10/24 08:53:13;;;;;;;;;;;17.30;99.90;;;;;;5018021;28;20037;-89
2022/10/24 08:55:43;;;;;;;6.90;1.85;;;17.30;99.90;;;;;;5039538;28;20318;-89
2022/10/24 08:58:21;;;;;;;5.57;1.20;;;17.40;99.90;;;;;;5038902;28;20094;-93
2022/10/24 09:00:48;;;;;;;6.72;2.30;;;17.60;99.90;;;;;;5040059;28;20060;-90
2022/10/24 09:03:26;;;;;;;5.57;1.40;;;17.80;99.90;;;;;;5023526;28;20076;-89
2022/10/24 09:05:54;;;;;;;6.32;1.42;;;17.80;99.90;;;;;;5026534;28;20047;-89
2022/10/24 09:08:42;;;;;;;6.82;1.60;;;17.70;99.90;;;;;;5036347;28;20052;-89
2022/10/24 09:11:13;;;;;;;4.88;1.40;;;17.80;99.90;;;;;;5058170;28;20048;-90
2022/10/24 09:13:38;;;;;;;4.88;1.13;;;17.90;99.90;;;;;;5033833;28;20069;-88
2022/10/24 09:16:04;;;;;;;7.75;1.48;;;18.10;99.90;;;;;;5040828;28;20127;-90
2022/10/24 09:18:39;;;;;;;4.00;1.25;;;18.20;99.90;;;;;;5011729;28;20041;-90
2022/10/24 09:21:06;;;;;;;7.63;2.53;;;18.00;99.90;;;;;;5013770;28;20075;-90
2022/10/24 09:23:35;;;;;;;6.47;1.40;;;18.00;99.90;;;;;;5032671;28;20053;-89
2022/10/24 09:26:01;;;;;;;6.07;1.40;;;17.80;99.90;;;;;;5029971;28;20041;-89
2022/10/24 09:28:26;;;;;;;5.88;1.70;;;17.80;99.90;;;;;;5009384;28;20416;-92
2022/10/24 09:30:52;;;;;;;4.75;1.50;;;17.70;99.90;;;;;;5002777;28;20041;-91
2022/10/24 09:33:29;;;;;;;4.38;1.35;;;17.80;99.90;;;;;;5042728;28;20041;-91
2022/10/24 09:35:57;;;;;;;6.13;1.60;;;17.70;99.90;;;;;;5037181;28;20056;-91
2022/10/24 09:38:26;;;;;;;6.82;1.90;;;17.50;99.90;;;;;;5020927;28;20044;-91
2022/10/24 09:40:53;;;;;;;4.45;1.25;;;17.60;99.90;;;;;;5041868;28;20049;-89
2022/10/24 09:43:37;;;;;;;8.85;1.50;;;17.50;99.90;;;;;;5034072;28;20131;-91
2022/10/24 09:46:08;;;;;;;3.10;1.10;;;17.50;99.90;;;;;;5052977;28;20044;-91
2022/10/24 09:48:57;;;;;;;7.15;1.83;;;16.40;99.90;;;;;;5037832;28;20053;-89
2022/10/24 09:51:34;;;;;;;9.20;1.33;;;17.60;99.90;;;;;;5042813;28;20409;-86
2022/10/24 09:54:02;;;;;;;4.38;1.35;;;17.60;99.90;;;;;;5030915;28;20052;-88
2022/10/24 09:56:36;;;;;;;6.18;1.45;;;17.50;99.90;;;;;;5024172;28;20056;-87
2022/10/24 09:59:21;;;;;;;;;;;17.50;99.90;;;;;;5021563;28;20064;-89
2022/10/24 10:01:46;;;;;;;4.53;1.15;;;17.50;99.90;;;;;;5041891;28;20260;-89
2022/10/24 10:04:16;;;;;;;4.45;1.30;;;17.70;99.90;;;;;;5057434;28;20051;-86
2022/10/24 10:06:46;;;;;;;5.18;1.25;;;17.80;99.90;;;;;;5063192;28;20036;-90
2022/10/24 10:09:12;;;;;;;4.43;1.20;;;18.00;99.90;;;;;;5058399;28;20439;-87
2022/10/24 10:11:38;;;;;;;5.53;1.90;;;17.80;99.90;;;;;;5028949;28;20085;-91
2022/10/24 10:14:22;;;;;;;4.70;1.20;;;17.70;99.90;;;;;;5016103;28;20502;-91
2022/10/24 10:17:00;;;;;;;4.35;1.85;;;17.90;99.90;;;;;;5032983;28;20087;-92
2022/10/24 10:19:26;;;;;;;3.78;1.33;;;18.00;99.90;;;;;;5048830;28;20041;-89
2022/10/24 10:22:00;;;;;;;7.90;1.90;;;18.00;99.90;;;;;;5030486;28;20049;-93
2022/10/24 10:24:32;;;;;;;3.88;1.30;;;18.00;99.90;;;;;;5040001;28;20045;-89
2022/10/24 10:26:57;;;;;;;4.00;1.10;;;18.10;99.90;;;;;;5038192;28;20042;-90
2022/10/24 10:29:26;;;;;;;7.18;1.45;;;18.10;99.90;;;;;;5034966;28;20048;-93
2022/10/24 10:32:10;;;;;;;3.53;1.05;;;18.20;99.90;;;;;;5002246;28;20381;-87
2022/10/24 10:34:44;;;;;;;5.07;1.33;;;18.10;99.90;;;;;;5011989;28;20048;-91
2022/10/24 10:37:31;;;;;;;4.45;1.25;;;18.10;99.90;;;;;;5005681;28;21415;-92
2022/10/24 10:40:19;;;;;;;5.43;1.08;;;18.10;99.90;;;;;;5049245;28;20045;-90
2022/10/24 10:43:09;;;;;;;4.32;1.20;;;17.90;99.90;;;;;;5028522;28;20407;-87
2022/10/24 10:45:40;;;;;;;3.47;0.95;;;17.80;99.90;;;;;;5018468;28;20050;-89
2022/10/24 10:48:20;;;;;;;5.20;1.27;;;17.80;99.90;;;;;;5020078;28;20107;-90
2022/10/24 10:51:20;;;;;;;4.10;1.20;;;17.80;99.90;;;;;;5035087;28;20106;-90
2022/10/24 10:54:11;;;;;;;8.57;1.02;;;17.70;99.90;;;;;;5015705;28;20069;-91
2022/10/24 10:57:15;;;;;;;3.83;1.00;;;17.80;99.90;;;;;;5034563;28;20061;-90
2022/10/24 10:59:56;;;;;;;2.80;0.90;;;17.70;99.90;;;;;;5020594;28;20099;-90
2022/10/24 11:02:39;;;;;;;6.47;1.20;;;17.60;99.90;;;;;;5020335;28;20288;-89
2022/10/24 11:05:24;;;;;;;4.55;1.10;;;17.40;99.90;;;;;;5047706;28;20099;-91
2022/10/24 11:08:38;;;;;;;4.43;1.00;;;17.40;99.90;;;;;;5045503;28;20049;-88
2022/10/24 11:11:07;;;;;;;2.92;1.17;;;17.50;99.90;;;;;;5016172;28;20082;-90
2022/10/24 11:13:39;;;;;;;3.67;1.00;;;17.30;99.90;;;;;;5017133;28;20261;-89
2022/10/24 11:16:09;;;;;;;5.60;1.30;;;17.30;99.90;;;;;;5017376;28;20061;-91
2022/10/24 11:18:39;;;;;;;5.05;1.05;;;17.30;99.90;;;;;;5017808;28;20096;-88
2022/10/24 11:21:07;;;;;;;5.80;1.30;;;17.40;99.90;;;;;;5017832;28;20045;-89
2022/10/24 11:23:44;;;;;;;3.45;1.15;;;17.50;99.90;;;;;;5020423;28;20045;-89
2022/10/24 11:26:15;;;;;;;2.95;1.50;;;17.50;99.90;;;;;;5064044;28;20064;-87
2022/10/24 11:28:58;;;;;;;4.43;1.00;;;17.60;99.90;;;;;;5055422;28;20436;-86
2022/10/24 11:31:48;;;;;;;1.92;0.90;;;17.40;99.90;;;;;;5061164;28;20127;-87
2022/10/24 11:34:25;;;;;;;7.03;0.95;;;17.60;99.90;;;;;;5036147;28;20096;-90
2022/10/24 11:36:53;;;;;;;6.55;1.10;;;17.50;99.90;;;;;;5055910;28;20374;-90
2022/10/24 11:39:39;;;;;;;4.20;1.13;;;17.60;99.90;;;;;;5037422;28;20049;-90
2022/10/24 11:42:18;;;;;;;5.72;1.00;;;17.70;99.90;;;;;;5023932;28;20049;-92
2022/10/24 11:45:04;;;;;;;3.72;1.00;;;17.80;99.90;;;;;;5023593;28;20049;-90
2022/10/24 11:47:55;;;;;;;2.70;0.90;;;17.90;99.90;;;;;;5020897;28;20560;-94
2022/10/24 11:50:24;;;;;;;2.75;0.82;;;17.70;99.90;;;;;;5040142;28;20037;-94
2022/10/24 11:53:38;;;;;;;4.90;0.80;;;17.80;99.90;;;;;;5054648;28;20052;-91
2022/10/24 11:56:07;;;;;;;4.53;0.82;;;18.40;99.90;;;;;;5038348;28;20052;-91
2022/10/24 11:58:33;;;;;;;3.92;1.10;;;17.70;99.90;;;;;;5053876;28;20060;-92
2022/10/24 12:01:22;;;;;;;3.83;1.10;;;17.60;99.90;;;;;;5037994;28;20057;-89
2022/10/24 12:04:16;;;;;;;6.07;2.03;;;17.50;99.90;;;;;;5038292;28;20084;-92
2022/10/24 12:07:04;;;;;;;3.22;0.98;;;17.50;99.90;;;;;;5037783;28;20092;-90
2022/10/24 12:09:41;;;;;;;2.55;0.70;;;17.60;99.90;;;;;;5057437;28;20049;-88
2022/10/24 12:12:34;;;;;;;4.10;1.20;;;17.50;99.90;;;;;;5054560;28;20044;-90
2022/10/24 12:15:09;;;;;;;2.72;1.15;;;17.50;99.90;;;;;;5028430;28;20063;-88
2022/10/24 12:17:35;;;;;;;5.28;0.93;;;17.70;99.90;;;;;;5040338;28;20034;-90
2022/10/24 12:20:00;;;;;;;2.47;0.93;;;17.80;99.90;;;;;;5052686;28;20047;-91
2022/10/24 12:22:35;;;;;;;3.85;1.00;;;17.70;99.90;;;;;;5043309;28;20096;-90
2022/10/24 12:25:05;;;;;;;3.47;0.90;;;17.60;99.90;;;;;;5009361;28;20138;-91
2022/10/24 12:27:31;;;;;;;2.35;0.90;;;17.50;99.90;;;;;;5026330;28;20047;-89
2022/10/24 12:30:16;;;;;;;4.85;0.90;;;17.70;99.90;;;;;;5044619;28;20049;-92
2022/10/24 12:32:47;;;;;;;3.50;1.10;;;17.70;99.90;;;;;;5036716;28;20392;-93
2022/10/24 12:35:30;;;;;;;4.15;0.90;;;17.70;99.90;;;;;;5028357;28;20057;-90
2022/10/24 12:37:56;;;;;;;3.13;0.90;;;17.50;99.90;;;;;;5044315;28;20133;-89
2022/10/24 12:40:57;;;;;;;3.25;0.85;;;17.50;99.90;;;;;;4999238;28;20081;-91
2022/10/24 12:43:30;;;;;;;4.43;1.20;;;17.50;99.90;;;;;;5001739;28;20068;-89
2022/10/24 12:45:59;;;;;;;5.90;1.02;;;17.60;99.90;;;;;;5038923;28;20045;-86
2022/10/24 12:48:29;;;;;;;4.30;1.08;;;17.70;99.90;;;;;;5051680;28;20041;-87
2022/10/24 12:51:00;;;;;;;4.15;0.80;;;17.80;99.90;;;;;;5035113;28;20050;-87
2022/10/24 12:53:36;;;;;;;4.25;0.85;;;17.90;99.90;;;;;;5051064;28;20052;-86
2022/10/24 12:56:04;;;;;;;4.65;1.30;;;17.80;99.90;;;;;;5036501;28;20056;-92
2022/10/24 12:58:34;;;;;;;2.35;0.80;;;17.90;99.90;;;;;;5029634;28;20165;-91
2022/10/24 13:01:05;;;;;;;2.35;0.80;;;17.70;99.90;;;;;;5029007;28;20048;-90
2022/10/24 13:03:30;;;;;;;2.83;0.90;;;17.80;99.90;;;;;;5028783;28;20049;-89
2022/10/24 13:06:06;;;;;;;5.05;1.20;;;17.80;99.90;;;;;;5042160;28;20048;-86